Warning: Invalid argument supplied for foreach() in /server/czul.ca/includes/prompts.inc.php on line 9

Warning: Invalid argument supplied for foreach() in /server/czul.ca/includes/prompts.inc.php on line 9

Warning: Invalid argument supplied for foreach() in /server/czul.ca/includes/prompts.inc.php on line 9
CZUL - FIR virtuelle de Montréal

EDDF

Frankfurt am Main International Airport

{{ICAO_CODE}} EDDF
{{IATA_CODE}} FRA
{{NAME}} Frankfurt am Main International Airport
{{LOCATION}} Frankfurt-am-Main, Hesse, DE
{{ELEVATION}} 364 {{FEET}} / 110.9 {{METERS}}
{{LATITUDE}} 50.02640152
{{LONGITUDE}} 8.54312992
{{METAR}} EDDF 232320Z 19006KT 170V270 9999 FEW030 BKN040 14/10 Q1018 NOSIG
{{EXTRA_INFO}} {{DISPLAY_CHARTS_AND_CFS}}
{{DISPLAY_NOTAMS}}
{{RUNWAY}} {{LENGTH}} {{WIDTH}} {{SURFACE}} {{ELEVATION}}
07C 13123 ft 197 ft ASP 329 ft
07L 9186 ft 148 ft CON 305 ft
07R 13123 ft 148 ft CON 328 ft
18 13123 ft 148 ft CON 326 ft
25C 13123 ft 197 ft ASP 364 ft
25R 9186 ft 148 ft CON 353 ft
25L 13123 ft 148 ft CON 362 ft
36 13123 ft 148 ft CON 316 ft